createdAt,value
2023-05-10T00:01:00.360Z,10.00
2023-05-10T00:03:27.584Z,6.60
2023-05-10T00:05:54.774Z,6.30
2023-05-10T00:08:22.037Z,6.90
2023-05-10T00:10:49.825Z,5.60
2023-05-10T00:13:16.989Z,8.90
2023-05-10T00:15:44.039Z,9.10
2023-05-10T00:18:11.705Z,6.70
2023-05-10T00:20:38.930Z,6.70
2023-05-10T00:23:06.197Z,6.60
2023-05-10T00:25:33.455Z,5.80
2023-05-10T00:28:01.944Z,5.80
2023-05-10T00:30:28.885Z,7.00
2023-05-10T00:32:56.128Z,8.90
2023-05-10T00:35:23.836Z,5.40
2023-05-10T00:37:51.168Z,5.30
2023-05-10T00:40:18.503Z,8.20
2023-05-10T00:42:48.454Z,6.20
2023-05-10T00:45:15.608Z,6.40
2023-05-10T00:47:42.908Z,7.00
2023-05-10T00:50:10.612Z,6.70
2023-05-10T00:52:37.906Z,6.50
2023-05-10T00:55:06.835Z,6.00
2023-05-10T00:57:33.901Z,5.60
2023-05-10T01:00:02.740Z,6.20
2023-05-10T01:02:30.164Z,5.00
2023-05-10T01:04:58.823Z,6.60
2023-05-10T01:07:26.051Z,6.70
2023-05-10T01:09:53.415Z,5.00
2023-05-10T01:12:21.414Z,6.50
2023-05-10T01:14:49.464Z,7.10
2023-05-10T01:17:17.334Z,9.80
2023-05-10T01:19:44.798Z,10.50
2023-05-10T01:22:20.974Z,7.80
2023-05-10T01:25:15.758Z,7.70
2023-05-10T01:27:45.659Z,8.70
2023-05-10T01:30:31.337Z,9.20
2023-05-10T01:33:06.566Z,7.80
2023-05-10T01:35:40.184Z,6.10
2023-05-10T01:38:30.869Z,7.30
2023-05-10T01:41:09.503Z,6.80
2023-05-10T01:44:01.310Z,7.90
2023-05-10T01:46:40.066Z,10.30
2023-05-10T01:49:12.173Z,10.40
2023-05-10T01:51:47.642Z,7.10
2023-05-10T01:54:19.329Z,8.70
2023-05-10T01:56:51.155Z,7.60
2023-05-10T01:59:20.574Z,6.00
2023-05-10T02:01:49.365Z,6.60
2023-05-10T02:04:19.826Z,9.00
2023-05-10T02:06:48.583Z,6.50
2023-05-10T02:09:17.128Z,7.00
2023-05-10T02:11:44.741Z,8.20
2023-05-10T02:14:14.757Z,6.60
2023-05-10T02:16:43.688Z,5.20
2023-05-10T02:19:12.780Z,7.20
2023-05-10T02:21:42.152Z,5.90
2023-05-10T02:24:11.260Z,7.40
2023-05-10T02:26:39.124Z,6.90
2023-05-10T02:29:08.108Z,7.90
2023-05-10T02:31:36.016Z,7.30
2023-05-10T02:34:04.583Z,7.60
2023-05-10T02:36:32.421Z,7.30
2023-05-10T02:39:02.592Z,6.60
2023-05-10T02:41:33.114Z,6.70
2023-05-10T02:44:03.473Z,6.40
2023-05-10T02:46:31.164Z,6.60
2023-05-10T02:48:58.779Z,7.10
2023-05-10T02:51:32.203Z,6.60
2023-05-10T02:54:04.858Z,5.00
2023-05-10T02:56:40.465Z,5.90
2023-05-10T02:59:07.666Z,6.90
2023-05-10T03:01:35.416Z,5.90
2023-05-10T03:04:02.537Z,6.90
2023-05-10T03:06:29.850Z,6.60
2023-05-10T03:08:58.133Z,11.70
2023-05-10T03:11:47.800Z,8.70
2023-05-10T03:14:27.439Z,7.00
2023-05-10T03:17:10.866Z,5.50
2023-05-10T03:19:51.407Z,6.70
2023-05-10T03:23:00.646Z,8.00
2023-05-10T03:25:30.357Z,6.20
2023-05-10T03:27:57.911Z,6.20
2023-05-10T03:30:26.095Z,6.90
2023-05-10T03:32:53.429Z,4.90
2023-05-10T03:35:21.329Z,5.80
2023-05-10T03:37:48.275Z,6.10
2023-05-10T03:40:16.175Z,5.50
2023-05-10T03:42:43.716Z,6.20
2023-05-10T03:45:11.387Z,5.90
2023-05-10T03:47:38.467Z,6.30
2023-05-10T03:50:06.623Z,6.50
2023-05-10T03:52:33.876Z,7.10
2023-05-10T03:55:01.029Z,10.00
2023-05-10T03:57:28.491Z,8.60
2023-05-10T03:59:55.954Z,7.50
2023-05-10T04:02:24.219Z,7.30
2023-05-10T04:04:51.590Z,6.70
2023-05-10T04:07:18.749Z,6.00
2023-05-10T04:09:45.902Z,7.20
2023-05-10T04:12:12.857Z,8.20
2023-05-10T04:14:39.778Z,5.50
2023-05-10T04:17:06.901Z,5.80
2023-05-10T04:19:34.113Z,6.90
2023-05-10T04:22:03.324Z,6.50
2023-05-10T04:24:30.371Z,4.20
2023-05-10T04:26:57.985Z,4.70
2023-05-10T04:29:25.299Z,4.10
2023-05-10T04:31:52.495Z,4.20
2023-05-10T04:34:21.243Z,4.60
2023-05-10T04:36:48.499Z,5.40
2023-05-10T04:39:15.774Z,5.30
2023-05-10T04:41:42.962Z,5.40
2023-05-10T04:44:09.978Z,4.90
2023-05-10T04:46:37.485Z,6.00
2023-05-10T04:49:04.899Z,6.50
2023-05-10T04:51:32.460Z,6.30
2023-05-10T04:54:06.238Z,7.40
2023-05-10T04:56:33.893Z,7.60
2023-05-10T04:59:01.221Z,8.40
2023-05-10T05:01:28.295Z,9.00
2023-05-10T05:03:55.676Z,10.80
2023-05-10T05:06:22.711Z,8.80
2023-05-10T05:08:49.915Z,9.80
2023-05-10T05:11:17.806Z,12.90
2023-05-10T05:13:45.267Z,11.40
2023-05-10T05:16:12.702Z,7.60
2023-05-10T05:18:39.981Z,6.20
2023-05-10T05:21:20.106Z,6.70
2023-05-10T05:23:47.209Z,5.50
2023-05-10T05:26:15.353Z,4.70
2023-05-10T05:28:42.617Z,4.60
2023-05-10T05:31:09.738Z,4.40
2023-05-10T05:33:37.748Z,4.60
2023-05-10T05:36:06.626Z,3.40
2023-05-10T05:38:33.902Z,2.90
2023-05-10T05:41:01.266Z,4.20
2023-05-10T05:43:28.378Z,2.40
2023-05-10T05:45:58.167Z,2.30
2023-05-10T05:48:25.382Z,2.70
2023-05-10T05:50:56.215Z,3.20
2023-05-10T05:53:23.994Z,2.50
2023-05-10T05:55:55.677Z,2.00
2023-05-10T05:58:23.678Z,2.10
2023-05-10T06:00:52.453Z,1.90
2023-05-10T06:03:20.253Z,3.10
2023-05-10T06:05:47.626Z,2.00
2023-05-10T06:08:14.780Z,2.00
2023-05-10T06:10:41.903Z,2.00
2023-05-10T06:13:09.393Z,3.10
2023-05-10T06:15:36.637Z,2.00
2023-05-10T06:18:04.025Z,2.40
2023-05-10T06:20:32.020Z,2.30
2023-05-10T06:22:59.646Z,2.00
2023-05-10T06:25:26.803Z,3.00
2023-05-10T06:27:57.727Z,1.60
2023-05-10T06:30:28.672Z,1.40
2023-05-10T06:32:55.967Z,2.10
2023-05-10T06:35:23.468Z,2.30
2023-05-10T06:37:51.517Z,1.60
2023-05-10T06:40:18.827Z,3.60
2023-05-10T06:42:46.836Z,1.60
2023-05-10T06:45:16.060Z,2.20
2023-05-10T06:47:44.084Z,1.50
2023-05-10T06:50:11.911Z,1.60
2023-05-10T06:52:39.724Z,1.60
2023-05-10T06:55:07.556Z,1.60
2023-05-10T06:57:35.121Z,2.10
2023-05-10T07:00:04.688Z,2.80
2023-05-10T07:02:31.769Z,1.50
2023-05-10T07:05:01.690Z,1.40
2023-05-10T07:07:30.283Z,2.10
2023-05-10T07:09:58.059Z,1.50
2023-05-10T07:12:25.775Z,1.80
2023-05-10T07:14:52.900Z,2.90
2023-05-10T07:17:20.321Z,1.50
2023-05-10T07:19:47.569Z,1.80
2023-05-10T07:22:15.974Z,1.50
2023-05-10T07:24:43.330Z,4.90
2023-05-10T07:27:10.403Z,2.50
2023-05-10T07:29:37.879Z,1.40
2023-05-10T07:32:06.272Z,8.70
2023-05-10T07:34:33.316Z,1.90
2023-05-10T07:37:00.994Z,2.60
2023-05-10T07:39:28.519Z,1.90
2023-05-10T07:41:56.263Z,2.40
2023-05-10T07:44:23.736Z,3.30
2023-05-10T07:46:50.967Z,3.00
2023-05-10T07:49:18.065Z,2.70
2023-05-10T07:51:44.981Z,2.00
2023-05-10T07:54:13.067Z,1.70
2023-05-10T07:56:42.431Z,1.80
2023-05-10T07:59:10.682Z,1.80
2023-05-10T08:01:39.206Z,1.60
2023-05-10T08:04:06.366Z,2.30
2023-05-10T08:06:33.381Z,1.40
2023-05-10T08:09:00.355Z,1.70
2023-05-10T08:11:28.324Z,2.60
2023-05-10T08:13:55.277Z,2.00
2023-05-10T08:16:22.515Z,1.50
2023-05-10T08:18:51.197Z,1.70
2023-05-10T08:21:18.369Z,2.30
2023-05-10T08:23:45.415Z,1.50
2023-05-10T08:26:12.541Z,4.20
2023-05-10T08:28:39.658Z,2.30
2023-05-10T08:31:06.945Z,2.40
2023-05-10T08:33:34.288Z,2.70
2023-05-10T08:36:01.602Z,1.70
2023-05-10T08:38:28.854Z,1.60
2023-05-10T08:40:59.438Z,1.70
2023-05-10T08:43:29.578Z,1.80
2023-05-10T08:46:00.464Z,1.50
2023-05-10T08:48:30.179Z,2.10
2023-05-10T08:51:01.342Z,1.80
2023-05-10T08:53:29.709Z,1.80
2023-05-10T08:55:57.882Z,1.50
2023-05-10T08:58:26.290Z,1.50
2023-05-10T09:00:53.941Z,1.90
2023-05-10T09:03:21.499Z,3.00
2023-05-10T09:05:50.096Z,3.20
2023-05-10T09:08:18.274Z,2.20
2023-05-10T09:10:47.885Z,2.90
2023-05-10T09:13:18.309Z,1.20
2023-05-10T09:15:46.483Z,1.60
2023-05-10T09:18:13.957Z,1.40
2023-05-10T09:20:41.604Z,2.90
2023-05-10T09:23:09.293Z,1.80
2023-05-10T09:25:37.666Z,1.40
2023-05-10T09:28:08.967Z,1.50
2023-05-10T09:30:36.800Z,1.50
2023-05-10T09:33:04.149Z,1.70
2023-05-10T09:35:33.851Z,1.90
2023-05-10T09:38:05.496Z,2.40
2023-05-10T09:40:33.072Z,2.00
2023-05-10T09:43:02.315Z,2.60
2023-05-10T09:45:37.041Z,1.90
2023-05-10T09:48:06.464Z,2.30
2023-05-10T09:50:34.602Z,1.20
2023-05-10T09:53:03.900Z,1.80
2023-05-10T09:55:40.318Z,1.40
2023-05-10T09:58:10.754Z,1.80
2023-05-10T10:00:40.001Z,1.80
2023-05-10T10:03:14.486Z,3.00
2023-05-10T10:05:45.499Z,2.60
2023-05-10T10:08:13.646Z,2.00
2023-05-10T10:10:41.559Z,1.90
2023-05-10T10:13:09.016Z,1.70
2023-05-10T10:15:36.214Z,1.50
2023-05-10T10:18:05.686Z,3.00
2023-05-10T10:20:33.014Z,2.20
2023-05-10T10:23:00.379Z,1.30
2023-05-10T10:25:27.648Z,1.50
2023-05-10T10:27:54.832Z,11.80
2023-05-10T10:30:49.573Z,4.60
2023-05-10T10:33:38.117Z,1.60
2023-05-10T10:36:06.085Z,2.10
2023-05-10T10:38:48.437Z,1.70
2023-05-10T10:41:30.720Z,2.70
2023-05-10T10:44:27.166Z,1.80
2023-05-10T10:47:11.966Z,1.70
2023-05-10T10:50:02.888Z,1.80
2023-05-10T10:52:41.478Z,1.60
2023-05-10T10:55:14.127Z,3.20
2023-05-10T10:57:41.537Z,2.00
2023-05-10T11:00:22.208Z,1.60
2023-05-10T11:02:54.384Z,1.70
2023-05-10T11:08:08.682Z,1.50
2023-05-10T11:10:35.989Z,2.20
2023-05-10T11:13:08.917Z,2.20
2023-05-10T11:15:48.886Z,1.60
2023-05-10T11:18:29.414Z,1.60
2023-05-10T11:21:05.442Z,3.40
2023-05-10T11:23:47.945Z,1.80
2023-05-10T11:26:16.446Z,1.80
2023-05-10T11:28:50.080Z,3.00
2023-05-10T11:31:19.188Z,3.30
2023-05-10T11:33:51.237Z,1.90
2023-05-10T11:38:48.010Z,1.50
2023-05-10T11:41:17.381Z,1.80
2023-05-10T11:43:48.109Z,2.60
2023-05-10T11:46:17.471Z,6.00
2023-05-10T11:48:44.786Z,1.90
2023-05-10T11:51:12.156Z,1.30
2023-05-10T11:53:39.400Z,1.50
2023-05-10T11:56:11.216Z,1.40
2023-05-10T12:01:08.344Z,2.20
2023-05-10T12:03:36.205Z,1.50
2023-05-10T12:06:04.546Z,1.80
2023-05-10T12:08:31.650Z,2.50
2023-05-10T12:11:10.928Z,1.30
2023-05-10T12:13:40.739Z,1.30
2023-05-10T12:16:21.823Z,1.50
2023-05-10T12:18:54.072Z,1.50
2023-05-10T12:21:59.264Z,2.00
2023-05-10T12:24:26.460Z,1.50
2023-05-10T12:26:53.790Z,1.50
2023-05-10T12:29:21.037Z,1.40
2023-05-10T12:31:57.508Z,1.80
2023-05-10T12:34:31.119Z,1.30
2023-05-10T12:36:59.394Z,1.60
2023-05-10T12:39:26.804Z,1.90
2023-05-10T12:41:53.982Z,1.40
2023-05-10T12:44:21.184Z,1.60
2023-05-10T12:46:48.423Z,1.30
2023-05-10T12:49:15.580Z,1.70
2023-05-10T12:51:42.646Z,1.30
2023-05-10T12:54:10.304Z,1.50
2023-05-10T12:56:37.562Z,1.50
2023-05-10T12:59:04.921Z,2.30
2023-05-10T13:01:32.325Z,1.40
2023-05-10T13:04:00.563Z,1.60
2023-05-10T13:06:27.510Z,1.60
2023-05-10T13:08:54.671Z,1.80
2023-05-10T13:11:22.045Z,1.30
2023-05-10T13:13:49.283Z,3.20
2023-05-10T13:16:16.241Z,1.30
2023-05-10T13:18:43.563Z,1.30
2023-05-10T13:21:11.882Z,2.00
2023-05-10T13:23:38.958Z,1.70
2023-05-10T13:26:05.902Z,1.40
2023-05-10T13:28:32.886Z,2.00
2023-05-10T13:31:00.580Z,1.20
2023-05-10T13:33:27.455Z,1.40
2023-05-10T13:35:55.776Z,1.80
2023-05-10T13:38:22.882Z,2.00
2023-05-10T13:40:53.024Z,1.40
2023-05-10T13:43:20.381Z,1.60
2023-05-10T13:45:47.288Z,1.30
2023-05-10T13:48:14.190Z,1.50
2023-05-10T13:50:41.174Z,1.20
2023-05-10T13:53:08.288Z,1.70
2023-05-10T13:55:36.281Z,1.40
2023-05-10T13:58:03.173Z,2.40
2023-05-10T14:00:30.382Z,1.90
2023-05-10T14:02:57.325Z,1.30
2023-05-10T14:05:26.221Z,1.40
2023-05-10T14:07:54.197Z,1.30
2023-05-10T14:10:21.146Z,1.40
2023-05-10T14:12:48.347Z,1.50
2023-05-10T14:15:15.562Z,1.00
2023-05-10T14:17:42.743Z,1.40
2023-05-10T14:20:11.093Z,2.10
2023-05-10T14:22:38.153Z,2.70
2023-05-10T14:25:05.613Z,1.40
2023-05-10T14:27:32.976Z,1.20
2023-05-10T14:30:00.200Z,1.90
2023-05-10T14:32:28.415Z,1.30
2023-05-10T14:34:56.281Z,1.20
2023-05-10T14:37:23.334Z,1.50
2023-05-10T14:39:50.481Z,1.40
2023-05-10T14:42:17.655Z,1.70
2023-05-10T14:44:44.904Z,1.30
2023-05-10T14:47:12.398Z,2.10
2023-05-10T14:49:39.626Z,1.40
2023-05-10T14:52:07.391Z,2.20
2023-05-10T14:54:34.545Z,2.10
2023-05-10T14:57:01.901Z,1.20
2023-05-10T14:59:29.157Z,1.20
2023-05-10T15:01:56.827Z,1.50
2023-05-10T15:04:26.019Z,1.30
2023-05-10T15:06:59.631Z,2.00
2023-05-10T15:09:28.127Z,3.50
2023-05-10T15:11:55.579Z,2.90
2023-05-10T15:14:23.456Z,1.40
2023-05-10T15:16:50.616Z,1.30
2023-05-10T15:19:17.758Z,1.40
2023-05-10T15:21:45.672Z,1.20
2023-05-10T15:24:12.789Z,2.20
2023-05-10T15:26:39.853Z,1.40
2023-05-10T15:29:07.108Z,1.10
2023-05-10T15:31:36.362Z,1.50
2023-05-10T15:34:03.769Z,1.20
2023-05-10T15:36:32.564Z,1.30
2023-05-10T15:38:59.826Z,2.30
2023-05-10T15:41:26.809Z,2.20
2023-05-10T15:43:54.660Z,2.00
2023-05-10T15:46:22.406Z,1.30
2023-05-10T15:48:49.776Z,1.40
2023-05-10T15:51:16.939Z,2.70
2023-05-10T15:53:56.603Z,1.50
2023-05-10T15:56:31.100Z,1.40
2023-05-10T15:58:58.152Z,1.60
2023-05-10T16:01:25.823Z,2.80
2023-05-10T16:03:53.076Z,1.30
2023-05-10T16:06:20.343Z,1.40
2023-05-10T16:08:47.294Z,1.40
2023-05-10T16:11:14.550Z,1.80
2023-05-10T16:13:41.605Z,1.50
2023-05-10T16:20:37.190Z,1.20
2023-05-10T16:23:05.970Z,1.30
2023-05-10T16:25:33.334Z,2.10
2023-05-10T16:28:00.909Z,1.30
2023-05-10T16:30:29.899Z,2.20
2023-05-10T16:32:58.460Z,2.30
2023-05-10T16:35:26.253Z,1.70
2023-05-10T16:37:53.510Z,1.10
2023-05-10T16:40:21.179Z,1.30
2023-05-10T16:42:48.274Z,1.40
2023-05-10T16:45:16.693Z,1.90
2023-05-10T16:47:44.296Z,1.40
2023-05-10T16:50:11.855Z,1.90
2023-05-10T16:52:39.209Z,2.50
2023-05-10T16:55:06.876Z,1.50
2023-05-10T16:57:34.852Z,2.00
2023-05-10T17:00:03.680Z,2.80
2023-05-10T17:02:30.944Z,1.60
2023-05-10T17:04:58.169Z,1.70
2023-05-10T17:07:26.441Z,1.50
2023-05-10T17:09:53.713Z,2.10
2023-05-10T17:12:20.977Z,1.90
2023-05-10T17:14:48.119Z,1.90
2023-05-10T17:17:15.278Z,1.80
2023-05-10T17:19:45.202Z,3.10
2023-05-10T17:22:13.490Z,2.80
2023-05-10T17:24:40.731Z,2.10
2023-05-10T17:27:07.888Z,3.40
2023-05-10T17:29:34.933Z,3.70
2023-05-10T17:32:02.572Z,3.60
2023-05-10T17:34:29.665Z,2.90
2023-05-10T17:36:57.644Z,4.00
2023-05-10T17:39:24.917Z,5.30
2023-05-10T17:41:52.150Z,6.60
2023-05-10T17:44:19.512Z,11.80
2023-05-10T17:46:47.709Z,10.80
2023-05-10T17:49:15.055Z,9.10
2023-05-10T17:51:43.637Z,14.70
2023-05-10T17:54:10.785Z,11.70
2023-05-10T17:56:37.745Z,18.50
2023-05-10T17:59:05.225Z,12.90
2023-05-10T18:01:32.404Z,8.10
2023-05-10T18:04:00.031Z,8.80
2023-05-10T18:06:27.388Z,9.00
2023-05-10T18:08:54.750Z,10.50
2023-05-10T18:11:25.279Z,9.40
2023-05-10T18:13:52.335Z,6.90
2023-05-10T18:16:19.607Z,9.90
2023-05-10T18:18:47.000Z,15.70
2023-05-10T18:21:14.315Z,16.10
2023-05-10T18:23:41.466Z,15.90
2023-05-10T18:26:08.979Z,17.50
2023-05-10T18:28:36.371Z,19.50
2023-05-10T18:31:03.485Z,18.80
2023-05-10T18:33:30.714Z,15.60
2023-05-10T18:35:57.854Z,12.20
2023-05-10T18:38:25.333Z,14.60
2023-05-10T18:40:57.392Z,13.20
2023-05-10T18:45:52.157Z,14.10
2023-05-10T18:48:19.373Z,12.80
2023-05-10T18:50:46.421Z,15.30
2023-05-10T18:53:13.686Z,16.10
2023-05-10T18:55:40.985Z,16.70
2023-05-10T18:58:08.611Z,16.50
2023-05-10T19:00:35.676Z,16.80
2023-05-10T19:03:03.489Z,11.30
2023-05-10T19:05:31.210Z,10.50
2023-05-10T19:07:58.462Z,10.50
2023-05-10T19:10:25.719Z,9.10
2023-05-10T19:12:52.872Z,10.00
2023-05-10T19:15:21.732Z,13.80
2023-05-10T19:17:51.033Z,15.30
2023-05-10T19:20:18.335Z,14.70
2023-05-10T19:23:02.312Z,18.00
2023-05-10T19:25:34.757Z,16.20
2023-05-10T19:28:02.214Z,13.10
2023-05-10T19:30:31.988Z,11.00
2023-05-10T19:32:59.304Z,9.00
2023-05-10T19:35:26.641Z,9.70
2023-05-10T19:37:53.798Z,10.90
2023-05-10T19:40:21.179Z,10.70
2023-05-10T19:42:48.216Z,11.90
2023-05-10T19:45:15.794Z,10.60
2023-05-10T19:47:43.436Z,9.90
2023-05-10T19:50:11.886Z,9.30
2023-05-10T19:52:39.189Z,8.70
2023-05-10T19:55:07.467Z,11.10
2023-05-10T19:57:34.530Z,9.80
2023-05-10T20:00:02.306Z,9.00
2023-05-10T20:02:38.169Z,11.10
2023-05-10T20:05:06.059Z,9.80
2023-05-10T20:07:33.283Z,9.70
2023-05-10T20:10:00.291Z,11.30
2023-05-10T20:12:27.914Z,8.60
2023-05-10T20:14:55.154Z,10.20
2023-05-10T20:17:22.271Z,7.10
2023-05-10T20:19:49.461Z,7.10
2023-05-10T20:22:16.640Z,7.20
2023-05-10T20:24:43.989Z,7.60
2023-05-10T20:27:12.584Z,7.00
2023-05-10T20:29:39.834Z,7.00
2023-05-10T20:32:06.952Z,4.90
2023-05-10T20:34:34.957Z,6.50
2023-05-10T20:37:01.964Z,7.80
2023-05-10T20:39:29.686Z,7.80
2023-05-10T20:41:56.934Z,13.20
2023-05-10T20:44:23.893Z,16.70
2023-05-10T20:46:51.046Z,12.10
2023-05-10T20:49:19.222Z,13.50
2023-05-10T20:51:46.587Z,9.30
2023-05-10T20:54:13.944Z,11.80
2023-05-10T20:56:41.365Z,11.30
2023-05-10T20:59:08.419Z,10.30
2023-05-10T21:01:35.553Z,10.60
2023-05-10T21:04:03.606Z,10.30
2023-05-10T21:06:31.482Z,9.40
2023-05-10T21:08:58.620Z,11.40
2023-05-10T21:11:25.801Z,11.30
2023-05-10T21:13:53.038Z,8.50
2023-05-10T21:16:20.415Z,7.00
2023-05-10T21:18:47.704Z,6.60
2023-05-10T21:21:15.014Z,6.10
2023-05-10T21:23:42.166Z,6.60
2023-05-10T21:26:09.319Z,6.00
2023-05-10T21:28:38.395Z,6.90
2023-05-10T21:31:07.226Z,6.10
2023-05-10T21:33:34.792Z,5.90
2023-05-10T21:36:01.764Z,7.40
2023-05-10T21:38:29.106Z,7.60
2023-05-10T21:40:56.453Z,6.50
2023-05-10T21:43:23.429Z,7.50
2023-05-10T21:45:50.486Z,8.70
2023-05-10T21:48:17.527Z,6.10
2023-05-10T21:50:47.129Z,9.80
2023-05-10T21:53:14.180Z,5.60
2023-05-10T21:55:41.539Z,5.80
2023-05-10T21:58:08.490Z,6.80
2023-05-10T22:00:35.439Z,7.20
2023-05-10T22:03:02.667Z,5.40
2023-05-10T22:05:30.071Z,7.40
2023-05-10T22:07:57.328Z,12.00
2023-05-10T22:10:24.372Z,13.40
2023-05-10T22:12:51.631Z,15.70
2023-05-10T22:15:18.786Z,16.60
2023-05-10T22:17:45.996Z,14.50
2023-05-10T22:20:13.418Z,11.40
2023-05-10T22:22:40.671Z,12.90
2023-05-10T22:25:08.227Z,10.90
2023-05-10T22:27:36.195Z,8.80
2023-05-10T22:30:04.104Z,9.90
2023-05-10T22:32:31.794Z,8.30
2023-05-10T22:34:59.098Z,6.80
2023-05-10T22:37:26.579Z,6.00
2023-05-10T22:39:53.736Z,5.20
2023-05-10T22:42:20.778Z,5.80
2023-05-10T22:44:47.932Z,4.90
2023-05-10T22:47:16.003Z,4.70
2023-05-10T22:49:43.055Z,3.40
2023-05-10T22:52:10.424Z,4.20
2023-05-10T22:54:37.607Z,4.40
2023-05-10T22:57:05.640Z,3.70
2023-05-10T22:59:33.109Z,2.90
2023-05-10T23:02:00.493Z,3.80
2023-05-10T23:04:27.749Z,3.60
2023-05-10T23:06:54.890Z,2.60
2023-05-10T23:09:22.039Z,4.00
2023-05-10T23:11:48.912Z,5.10
2023-05-10T23:14:16.476Z,4.90
2023-05-10T23:16:43.567Z,7.40
2023-05-10T23:19:10.671Z,3.50
2023-05-10T23:21:37.938Z,4.10
2023-05-10T23:24:05.825Z,5.60
2023-05-10T23:26:32.951Z,3.30
2023-05-10T23:29:01.435Z,7.70
2023-05-10T23:31:28.944Z,4.80
2023-05-10T23:33:56.294Z,3.20
2023-05-10T23:36:23.310Z,3.50
2023-05-10T23:38:50.511Z,3.50
2023-05-10T23:41:17.522Z,6.70
2023-05-10T23:43:44.670Z,3.60
2023-05-10T23:46:11.855Z,4.90
2023-05-10T23:48:38.940Z,3.60
2023-05-10T23:51:06.038Z,3.00
2023-05-10T23:53:33.406Z,3.10
2023-05-10T23:56:00.571Z,2.50
2023-05-10T23:58:27.720Z,6.00
